Time;durP1;ratioP1;P1;durP2;ratioP2;P2;SDS_P1;SDS_P2;PMS_P1;PMS_P2;Temp;Humidity;BMP_temperature;BMP_pressure;BME280_temperature;BME280_humidity;BME280_pressure;Samples;Min_cycle;Max_cycle;Signal;HPM_P1;HPM_P2
2023/11/27 00:00:34;;;;;;;4.97;4.20;;;;;;;7.52;57.15;97152.69;5068054;28;20229;-73
2023/11/27 00:02:59;;;;;;;9.90;4.20;;;;;;;7.57;57.26;97147.06;5046257;28;20190;-71
2023/11/27 00:05:25;;;;;;;6.07;4.10;;;;;;;7.52;57.29;97142.25;5064252;28;20441;-70
2023/11/27 00:07:50;;;;;;;5.40;4.20;;;;;;;7.52;57.17;97140.47;5044593;28;20265;-71
2023/11/27 00:10:16;;;;;;;4.10;3.70;;;;;;;7.50;57.09;97134.56;5065103;28;20569;-70
2023/11/27 00:12:41;;;;;;;5.70;4.63;;;;;;;7.48;57.30;97136.47;5061343;28;20186;-73
2023/11/27 00:15:07;;;;;;;4.47;3.73;;;;;;;7.47;56.80;97120.97;5048002;28;20269;-71
2023/11/27 00:17:33;;;;;;;4.80;4.23;;;;;;;7.44;57.39;97129.88;5066190;28;20183;-72
2023/11/27 00:19:58;;;;;;;4.60;4.07;;;;;;;7.37;57.44;97121.75;5067984;28;20506;-70
2023/11/27 00:22:24;;;;;;;7.00;4.77;;;;;;;7.42;57.52;97129.22;5067901;28;20285;-70
2023/11/27 00:24:49;;;;;;;5.90;4.03;;;;;;;7.42;56.85;97121.38;5064914;28;20822;-70
2023/11/27 00:27:14;;;;;;;5.40;4.27;;;;;;;7.39;56.91;97111.22;5067526;28;20285;-71
2023/11/27 00:29:40;;;;;;;5.73;4.40;;;;;;;7.42;57.05;97110.13;5064754;28;20280;-70
2023/11/27 00:32:06;;;;;;;7.93;5.07;;;;;;;7.32;57.26;97104.88;5052924;28;20869;-71
2023/11/27 00:34:31;;;;;;;9.80;5.57;;;;;;;7.34;57.35;97102.97;5071363;28;20186;-69
2023/11/27 00:36:57;;;;;;;6.27;5.03;;;;;;;7.35;57.21;97099.41;5066423;28;20210;-71
2023/11/27 00:39:22;;;;;;;8.97;6.07;;;;;;;7.35;57.43;97089.81;5070537;28;20202;-72
2023/11/27 00:41:48;;;;;;;6.97;5.80;;;;;;;7.37;57.48;97093.06;5071200;28;20190;-70
2023/11/27 00:44:16;;;;;;;6.83;5.53;;;;;;;7.38;57.07;97092.13;5070726;28;20229;-71
2023/11/27 00:46:42;;;;;;;5.30;4.80;;;;;;;7.36;57.48;97091.47;5062103;28;20264;-71
2023/11/27 00:49:07;;;;;;;7.20;6.00;;;;;;;7.28;57.40;97082.66;5063564;28;20488;-72
2023/11/27 00:51:33;;;;;;;10.43;5.37;;;;;;;7.28;57.47;97078.25;5061564;28;20285;-70
2023/11/27 00:53:58;;;;;;;6.20;4.77;;;;;;;7.25;57.68;97078.50;5071206;28;20182;-70
2023/11/27 00:56:24;;;;;;;6.20;4.50;;;;;;;7.27;57.49;97066.16;5062070;28;20217;-72
2023/11/27 00:58:50;;;;;;;5.80;4.70;;;;;;;7.28;57.54;97072.22;5056786;28;20201;-72
2023/11/27 01:01:16;;;;;;;6.60;4.63;;;;;;;7.24;57.24;97066.47;5062769;28;20429;-71
2023/11/27 01:03:41;;;;;;;5.60;4.33;;;;;;;7.33;57.45;97059.59;5071888;28;20218;-73
2023/11/27 01:06:13;;;;;;;5.20;4.20;;;;;;;7.37;56.41;97058.38;5070850;28;20769;-71
2023/11/27 01:08:39;;;;;;;6.30;4.27;;;;;;;7.43;56.73;97057.84;5041492;28;20217;-71
2023/11/27 01:11:05;;;;;;;6.43;4.20;;;;;;;7.44;56.43;97051.66;5069356;28;20433;-72
2023/11/27 01:13:30;;;;;;;5.77;4.43;;;;;;;7.42;56.28;97042.31;5065316;28;20432;-72
2023/11/27 01:15:56;;;;;;;6.30;4.17;;;;;;;7.36;56.15;97046.28;5063236;28;20674;-72
2023/11/27 01:18:22;;;;;;;5.47;4.40;;;;;;;7.34;56.53;97037.78;5065471;28;20217;-71
2023/11/27 01:20:47;;;;;;;6.03;4.00;;;;;;;7.34;56.78;97041.22;5070094;28;20471;-74
2023/11/27 01:23:14;;;;;;;4.67;3.93;;;;;;;7.37;56.24;97029.69;5068834;28;20277;-71
2023/11/27 01:25:40;;;;;;;5.40;3.73;;;;;;;7.35;55.71;97034.22;5059483;28;20214;-71
2023/11/27 01:28:05;;;;;;;4.50;3.50;;;;;;;7.22;56.56;97032.69;5056241;28;20430;-72
2023/11/27 01:30:31;;;;;;;6.80;4.23;;;;;;;7.16;57.06;97021.97;5066471;28;20468;-73
2023/11/27 01:32:56;;;;;;;5.77;3.40;;;;;;;7.03;57.35;97012.63;5063554;28;20204;-72
2023/11/27 01:35:22;;;;;;;6.53;4.07;;;;;;;6.91;57.27;97017.16;5059293;28;20288;-72
2023/11/27 01:37:47;;;;;;;5.07;3.67;;;;;;;7.00;57.52;97006.88;5063713;28;20191;-72
2023/11/27 01:40:12;;;;;;;6.17;3.93;;;;;;;7.01;57.52;96998.09;5067446;28;20757;-70
2023/11/27 01:42:38;;;;;;;3.87;3.53;;;;;;;7.06;57.51;96995.91;5070111;28;20665;-72
2023/11/27 01:45:04;;;;;;;5.00;3.80;;;;;;;6.94;57.25;96984.78;5068755;28;20256;-72
2023/11/27 01:47:29;;;;;;;5.67;3.73;;;;;;;7.02;57.09;96989.34;5068080;28;20848;-70
2023/11/27 01:49:55;;;;;;;4.27;3.80;;;;;;;7.08;57.07;96986.16;5063124;28;20581;-70
2023/11/27 01:52:21;;;;;;;9.57;3.83;;;;;;;7.03;57.26;96985.78;5030752;28;20195;-72
2023/11/27 01:54:47;;;;;;;4.20;3.80;;;;;;;6.96;57.44;96982.03;5045498;28;20518;-72
2023/11/27 01:57:16;;;;;;;7.87;3.70;;;;;;;6.99;57.28;96981.78;5051501;28;20475;-72
2023/11/27 01:59:43;;;;;;;5.73;3.50;;;;;;;6.97;57.65;96975.88;5051338;28;20593;-72
2023/11/27 02:02:09;;;;;;;6.10;3.80;;;;;;;7.06;57.43;96969.84;5051870;28;20429;-72
2023/11/27 02:04:34;;;;;;;6.80;3.43;;;;;;;7.12;57.19;96965.91;5051134;28;20428;-73
2023/11/27 02:07:00;;;;;;;4.53;3.50;;;;;;;7.18;57.84;96962.72;5069751;28;21043;-72
2023/11/27 02:09:25;;;;;;;8.30;3.60;;;;;;;7.16;56.84;96962.88;5042499;28;20218;-71
2023/11/27 02:11:51;;;;;;;4.03;3.57;;;;;;;7.18;56.51;96965.34;5064629;28;20191;-71
2023/11/27 02:14:17;;;;;;;4.60;3.37;;;;;;;7.16;56.92;96959.44;5057904;28;20609;-72
2023/11/27 02:16:43;;;;;;;4.67;3.43;;;;;;;7.19;56.59;96946.13;5068842;28;20206;-70
2023/11/27 02:19:09;;;;;;;4.37;3.40;;;;;;;7.19;56.62;96941.72;5050798;28;20873;-71
2023/11/27 02:21:34;;;;;;;5.00;3.57;;;;;;;7.21;56.81;96942.41;5046975;28;20433;-70
2023/11/27 02:24:00;;;;;;;3.63;3.23;;;;;;;7.22;56.79;96945.88;5048223;28;20760;-71
2023/11/27 02:26:25;;;;;;;4.80;3.50;;;;;;;7.17;56.50;96935.84;5046107;28;20221;-70
2023/11/27 02:28:51;;;;;;;7.03;3.63;;;;;;;7.09;56.76;96933.09;5068435;28;20295;-70
2023/11/27 02:31:16;;;;;;;5.17;3.10;;;;;;;7.17;56.42;96935.84;5068805;28;20572;-71
2023/11/27 02:33:41;;;;;;;3.43;2.80;;;;;;;7.18;56.71;96939.28;5056898;28;20737;-70
2023/11/27 02:36:08;;;;;;;6.17;3.33;;;;;;;7.14;56.79;96930.06;5068698;28;20233;-70
2023/11/27 02:38:34;;;;;;;6.03;4.07;;;;;;;7.18;56.59;96934.06;5055313;28;20186;-72
2023/11/27 02:41:00;;;;;;;6.70;3.50;;;;;;;7.22;56.03;96927.63;5061675;28;20429;-71
2023/11/27 02:43:25;;;;;;;4.03;3.17;;;;;;;7.20;56.69;96922.53;5066286;28;20460;-70
2023/11/27 02:45:51;;;;;;;7.47;3.50;;;;;;;7.21;56.37;96925.97;5068507;28;20207;-72
2023/11/27 02:48:16;;;;;;;6.37;3.20;;;;;;;7.26;56.16;96912.53;5051575;28;20201;-72
2023/11/27 02:50:43;;;;;;;4.63;3.13;;;;;;;7.30;56.12;96917.31;5064702;28;20302;-71
2023/11/27 02:53:08;;;;;;;4.13;3.00;;;;;;;7.29;55.94;96907.84;5064353;28;20193;-72
2023/11/27 02:55:34;;;;;;;3.70;3.00;;;;;;;7.30;56.30;96906.88;5057186;28;21170;-71
2023/11/27 02:57:59;;;;;;;3.57;3.07;;;;;;;7.29;56.07;96904.44;5061975;28;20273;-70
2023/11/27 03:00:25;;;;;;;3.23;2.93;;;;;;;7.32;55.52;96906.72;5049242;28;20186;-69
2023/11/27 03:02:51;;;;;;;4.10;3.33;;;;;;;7.25;55.89;96897.84;5060775;28;20240;-70
2023/11/27 03:05:16;;;;;;;8.77;3.07;;;;;;;7.33;55.84;96900.56;5060029;28;20351;-71
2023/11/27 03:07:41;;;;;;;5.53;3.00;;;;;;;7.35;56.13;96896.03;5059483;28;20561;-73
2023/11/27 03:10:09;;;;;;;5.37;3.20;;;;;;;7.40;55.64;96893.00;5068392;28;20628;-71
2023/11/27 03:12:37;;;;;;;6.00;3.27;;;;;;;7.41;55.91;96892.88;5065825;28;20432;-71
2023/11/27 03:15:05;;;;;;;4.20;3.37;;;;;;;7.44;55.46;96894.38;5061952;28;20194;-70
2023/11/27 03:17:30;;;;;;;5.33;3.03;;;;;;;7.41;55.59;96889.44;5067363;28;20425;-71
2023/11/27 03:19:56;;;;;;;3.20;2.90;;;;;;;7.40;55.68;96883.41;5066449;28;20939;-71
2023/11/27 03:22:23;;;;;;;4.90;2.77;;;;;;;7.41;55.51;96885.06;5067651;28;20239;-73
2023/11/27 03:24:49;;;;;;;7.43;3.00;;;;;;;7.40;55.36;96877.38;5064627;28;20294;-72
2023/11/27 03:27:14;;;;;;;2.90;2.30;;;;;;;7.40;55.38;96879.97;5059646;28;20543;-70
2023/11/27 03:29:40;;;;;;;4.17;2.53;;;;;;;7.34;55.87;96876.97;5065019;28;20217;-70
2023/11/27 03:32:06;;;;;;;3.40;3.10;;;;;;;7.41;56.36;96876.41;5057241;28;20186;-71
2023/11/27 03:34:31;;;;;;;6.50;2.50;;;;;;;7.43;55.84;96870.09;5067285;28;20197;-72
2023/11/27 03:36:57;;;;;;;4.70;2.73;;;;;;;7.45;55.49;96860.34;5061127;28;20460;-72
2023/11/27 03:39:23;;;;;;;4.53;2.43;;;;;;;7.49;55.54;96866.09;5058740;28;20195;-71
2023/11/27 03:41:52;;;;;;;2.60;2.40;;;;;;;7.45;55.44;96862.94;5067403;28;20243;-71
2023/11/27 03:44:17;;;;;;;2.30;2.10;;;;;;;7.49;55.33;96866.91;5067789;28;20450;-73
2023/11/27 03:46:43;;;;;;;2.53;2.23;;;;;;;7.50;55.46;96860.75;5063103;28;20453;-71
2023/11/27 03:49:08;;;;;;;3.83;2.33;;;;;;;7.42;55.29;96857.19;5062507;28;20202;-72
2023/11/27 03:51:34;;;;;;;2.30;2.10;;;;;;;7.46;55.37;96864.59;5067319;28;20285;-74
2023/11/27 03:53:59;;;;;;;2.53;2.13;;;;;;;7.50;55.04;96859.91;5065226;28;20267;-70
2023/11/27 03:56:25;;;;;;;4.20;2.10;;;;;;;7.47;55.31;96855.81;5068093;28;20221;-71
2023/11/27 03:58:50;;;;;;;3.03;2.03;;;;;;;7.46;55.51;96856.75;5070828;28;20554;-71
2023/11/27 04:01:16;;;;;;;3.47;2.30;;;;;;;7.47;55.53;96853.19;5067826;28;20276;-71
2023/11/27 04:03:41;;;;;;;5.07;2.50;;;;;;;7.43;56.16;96851.84;5064114;28;20201;-71
2023/11/27 04:06:07;;;;;;;3.63;2.53;;;;;;;7.41;56.17;96847.72;5072061;28;20206;-71
2023/11/27 04:08:39;;;;;;;3.00;2.70;;;;;;;7.39;56.13;96845.28;5062634;28;20210;-71
2023/11/27 04:11:09;;;;;;;5.20;2.53;;;;;;;7.46;55.54;96850.75;5072022;28;20437;-71
2023/11/27 04:13:35;;;;;;;2.57;2.37;;;;;;;7.51;55.82;96849.34;5070298;28;20569;-73
2023/11/27 04:16:00;;;;;;;4.83;2.40;;;;;;;7.51;55.06;96836.31;5053179;28;20552;-71
2023/11/27 04:18:26;;;;;;;4.37;2.17;;;;;;;7.48;55.69;96833.97;5059849;28;20195;-70
2023/11/27 04:20:51;;;;;;;3.90;2.20;;;;;;;7.49;55.24;96840.03;5071156;28;20215;-71
2023/11/27 04:23:17;;;;;;;3.83;2.10;;;;;;;7.49;55.15;96840.84;5064550;28;20782;-70
2023/11/27 04:25:42;;;;;;;2.70;2.33;;;;;;;7.41;54.90;96840.75;5069459;28;20766;-71
2023/11/27 04:28:07;;;;;;;3.40;2.20;;;;;;;7.44;55.56;96837.81;5070199;28;20628;-71
2023/11/27 04:30:33;;;;;;;4.37;2.33;;;;;;;7.45;55.23;96829.03;5060951;28;20645;-70
2023/11/27 04:32:58;;;;;;;2.07;1.90;;;;;;;7.46;55.10;96835.91;5063552;28;20183;-70
2023/11/27 04:35:24;;;;;;;3.03;2.13;;;;;;;7.42;55.43;96818.91;5071289;28;20247;-73
2023/11/27 04:37:49;;;;;;;3.40;2.43;;;;;;;7.37;55.34;96819.31;5070391;28;20298;-70
2023/11/27 04:40:15;;;;;;;2.17;1.97;;;;;;;7.41;54.98;96806.84;5062654;28;20190;-70
2023/11/27 04:42:41;;;;;;;2.23;2.03;;;;;;;7.45;54.94;96813.41;5068800;28;20281;-72
2023/11/27 04:45:07;;;;;;;4.27;2.20;;;;;;;7.43;54.79;96819.72;5068876;28;20237;-69
2023/11/27 04:47:33;;;;;;;3.60;2.23;;;;;;;7.41;54.59;96806.84;5064753;28;20450;-70
2023/11/27 04:49:59;;;;;;;3.40;2.50;;;;;;;7.34;54.65;96806.59;5048116;28;20453;-70
2023/11/27 04:52:24;;;;;;;3.57;2.80;;;;;;;7.33;55.17;96809.31;5065423;28;20487;-69
2023/11/27 04:54:49;;;;;;;2.83;2.00;;;;;;;7.28;55.32;96803.72;5068008;28;20295;-70
2023/11/27 04:57:15;;;;;;;4.30;2.27;;;;;;;7.28;55.27;96795.91;5062507;28;20241;-69
2023/11/27 04:59:40;;;;;;;2.60;2.23;;;;;;;7.30;54.98;96797.41;5062621;28;20208;-68
2023/11/27 05:02:06;;;;;;;3.03;2.70;;;;;;;7.34;54.98;96800.53;5055784;28;20194;-68
2023/11/27 05:04:33;;;;;;;3.67;2.17;;;;;;;7.30;55.13;96793.97;5062003;28;20186;-70
2023/11/27 05:07:02;;;;;;;2.40;2.23;;;;;;;7.26;55.16;96787.41;5057136;28;20809;-68
2023/11/27 05:09:28;;;;;;;3.57;2.10;;;;;;;7.22;55.25;96786.88;5068571;28;20834;-68
2023/11/27 05:11:54;;;;;;;3.67;2.37;;;;;;;7.22;54.93;96787.66;5061156;28;20436;-69
2023/11/27 05:14:19;;;;;;;3.87;2.33;;;;;;;7.24;55.06;96779.72;5062177;28;20198;-69
2023/11/27 05:16:44;;;;;;;3.90;2.27;;;;;;;7.23;54.41;96784.09;5068971;28;20210;-70
2023/11/27 05:19:10;;;;;;;5.87;2.50;;;;;;;7.20;54.67;96773.97;5069029;28;20199;-68
2023/11/27 05:21:36;;;;;;;2.50;2.17;;;;;;;7.16;54.48;96767.41;5069171;28;20201;-68
2023/11/27 05:24:02;;;;;;;3.07;2.20;;;;;;;7.21;54.71;96765.19;5070072;28;20201;-71
2023/11/27 05:26:28;;;;;;;3.20;2.60;;;;;;;7.25;54.15;96765.69;5064805;28;20256;-70
2023/11/27 05:28:54;;;;;;;3.80;2.33;;;;;;;7.22;54.32;96756.41;5067898;28;20875;-71
2023/11/27 05:31:22;;;;;;;5.63;2.83;;;;;;;7.16;54.46;96746.56;5063353;28;20198;-71
2023/11/27 05:33:48;;;;;;;3.90;2.60;;;;;;;7.13;54.70;96744.22;5049997;28;20194;-69
2023/11/27 05:36:13;;;;;;;3.20;2.60;;;;;;;7.13;54.54;96746.00;5061224;28;20491;-70
2023/11/27 05:38:38;;;;;;;2.97;2.77;;;;;;;7.17;54.69;96747.34;5068351;28;20206;-71
2023/11/27 05:41:06;;;;;;;5.90;2.60;;;;;;;7.12;54.47;96746.97;5068604;28;20190;-69
2023/11/27 05:43:31;;;;;;;5.43;2.90;;;;;;;7.15;54.03;96744.91;5068981;28;20186;-71
2023/11/27 05:45:57;;;;;;;5.53;3.00;;;;;;;7.10;54.26;96739.28;5063007;28;20529;-71
2023/11/27 05:48:22;;;;;;;3.80;2.57;;;;;;;7.11;54.03;96735.72;5064806;28;20680;-71
2023/11/27 05:50:48;;;;;;;2.90;2.43;;;;;;;7.11;53.97;96733.13;5068374;28;20191;-70
2023/11/27 05:53:14;;;;;;;2.57;2.33;;;;;;;7.05;53.65;96734.50;5056741;28;20214;-70
2023/11/27 05:55:39;;;;;;;4.60;2.83;;;;;;;7.13;54.13;96736.41;5067640;28;20535;-73
2023/11/27 05:58:06;;;;;;;4.87;2.70;;;;;;;7.11;53.92;96722.69;5053739;28;20210;-71
2023/11/27 06:00:31;;;;;;;5.30;3.20;;;;;;;7.10;53.74;96730.66;5067366;28;20585;-71
2023/11/27 06:02:57;;;;;;;4.30;3.50;;;;;;;7.03;53.93;96723.41;5061549;28;20510;-71
2023/11/27 06:05:23;;;;;;;5.50;3.60;;;;;;;7.09;53.74;96727.22;5057669;28;20206;-70
2023/11/27 06:07:49;;;;;;;5.47;3.30;;;;;;;7.09;53.87;96729.81;5066025;28;20455;-71
2023/11/27 06:10:16;;;;;;;5.20;3.10;;;;;;;7.11;53.50;96717.47;5063852;28;20221;-70
2023/11/27 06:12:42;;;;;;;4.47;2.83;;;;;;;7.18;53.94;96720.34;5066604;28;20200;-71
2023/11/27 06:15:08;;;;;;;3.33;2.50;;;;;;;7.23;53.55;96716.34;5068123;28;20424;-70
2023/11/27 06:17:33;;;;;;;3.13;2.73;;;;;;;7.22;53.36;96717.28;5061563;28;20980;-71
2023/11/27 06:20:00;;;;;;;4.00;2.63;;;;;;;7.25;53.65;96717.97;5064434;28;20760;-72
2023/11/27 06:22:26;;;;;;;8.90;7.57;;;;;;;7.18;53.41;96713.31;5065903;28;20523;-71
2023/11/27 06:24:51;;;;;;;6.10;5.50;;;;;;;7.18;53.57;96713.31;5068797;28;20201;-71
2023/11/27 06:27:16;;;;;;;8.00;5.30;;;;;;;7.17;53.68;96714.31;5065226;28;20238;-72
2023/11/27 06:29:43;;;;;;;5.40;4.30;;;;;;;7.16;53.35;96710.06;5067446;28;21414;-70
2023/11/27 06:32:08;;;;;;;7.47;3.83;;;;;;;7.19;53.49;96717.56;5064355;28;20708;-70
2023/11/27 06:34:34;;;;;;;5.40;3.27;;;;;;;7.15;53.99;96705.81;5067307;28;20516;-70
2023/11/27 06:36:59;;;;;;;4.83;3.40;;;;;;;7.16;54.42;96707.47;5065356;28;20301;-73
2023/11/27 06:39:26;;;;;;;4.47;3.97;;;;;;;7.14;53.50;96706.78;5039882;28;20815;-71
2023/11/27 06:41:53;;;;;;;12.77;7.93;;;;;;;7.14;54.20;96706.78;5066517;28;20197;-71
2023/11/27 06:44:19;;;;;;;8.37;6.00;;;;;;;7.13;53.89;96699.91;5068339;28;20432;-70
2023/11/27 06:46:45;;;;;;;8.40;5.60;;;;;;;7.15;54.11;96703.22;5067237;28;20521;-72
2023/11/27 06:49:11;;;;;;;8.40;5.00;;;;;;;7.12;54.08;96697.47;5047728;28;20757;-71
2023/11/27 06:51:37;;;;;;;10.07;6.17;;;;;;;7.15;54.21;96694.56;5066838;28;20437;-69
2023/11/27 06:54:03;;;;;;;9.33;5.70;;;;;;;7.19;53.58;96690.72;5067641;28;20220;-71
2023/11/27 06:56:33;;;;;;;11.60;5.67;;;;;;;7.14;54.28;96691.13;5060241;28;20652;-70
2023/11/27 06:59:00;;;;;;;9.63;5.90;;;;;;;7.17;54.00;96692.63;5061667;28;20789;-71
2023/11/27 07:01:28;;;;;;;13.07;7.40;;;;;;;7.17;54.23;96690.03;5066353;28;20432;-71
2023/11/27 07:03:53;;;;;;;9.60;7.07;;;;;;;7.13;53.88;96689.50;5062662;28;20425;-72
2023/11/27 07:06:19;;;;;;;9.23;5.50;;;;;;;7.09;54.15;96682.09;5067969;28;20466;-70
2023/11/27 07:08:44;;;;;;;5.80;4.00;;;;;;;7.09;54.10;96672.50;5066797;28;20210;-72
2023/11/27 07:11:10;;;;;;;7.50;4.67;;;;;;;7.04;54.66;96670.31;5067831;28;20696;-73
2023/11/27 07:13:36;;;;;;;4.13;3.63;;;;;;;7.00;54.48;96673.34;5058799;28;20572;-71
2023/11/27 07:16:01;;;;;;;7.13;4.10;;;;;;;7.01;54.55;96667.19;5067637;28;20284;-73
2023/11/27 07:18:29;;;;;;;4.33;3.50;;;;;;;6.98;54.54;96664.84;5060753;28;20232;-72
2023/11/27 07:20:55;;;;;;;8.23;4.20;;;;;;;7.03;55.16;96657.44;5062006;28;20195;-72
2023/11/27 07:23:22;;;;;;;5.53;4.30;;;;;;;7.10;55.30;96660.31;5029545;28;20465;-71
2023/11/27 07:25:47;;;;;;;5.63;3.80;;;;;;;7.09;54.75;96651.66;5041478;28;20444;-71
2023/11/27 07:28:12;;;;;;;8.03;3.50;;;;;;;7.09;54.43;96651.66;5058770;28;20440;-71
2023/11/27 07:30:38;;;;;;;4.20;3.70;;;;;;;7.14;54.52;96649.44;5060416;28;20812;-70
2023/11/27 07:33:04;;;;;;;9.80;4.37;;;;;;;7.17;54.11;96641.34;5064603;28;20190;-71
2023/11/27 07:35:29;;;;;;;7.23;4.43;;;;;;;7.19;54.21;96636.78;5067847;28;20321;-70
2023/11/27 07:37:55;;;;;;;7.07;5.00;;;;;;;7.30;53.99;96625.34;5058908;28;20194;-70
2023/11/27 07:40:21;;;;;;;7.10;4.50;;;;;;;7.27;53.55;96622.22;5063525;28;20214;-71
2023/11/27 07:42:46;;;;;;;5.67;4.50;;;;;;;7.30;53.69;96622.75;5063978;28;20198;-68
2023/11/27 07:45:11;;;;;;;7.13;4.93;;;;;;;7.30;53.54;96617.53;5064548;28;20229;-68
2023/11/27 07:47:37;;;;;;;7.07;5.10;;;;;;;7.29;54.27;96612.47;5067658;28;20280;-68
2023/11/27 07:50:06;;;;;;;5.37;4.13;;;;;;;7.30;53.76;96611.50;5064906;28;20211;-69
2023/11/27 07:52:31;;;;;;;5.40;3.73;;;;;;;7.28;53.60;96610.84;5066452;28;20190;-69
2023/11/27 07:54:57;;;;;;;8.70;4.73;;;;;;;7.33;53.57;96601.59;5027843;28;20429;-72
2023/11/27 07:57:23;;;;;;;7.47;5.37;;;;;;;7.36;54.21;96601.31;5010290;28;20214;-74
2023/11/27 07:59:48;;;;;;;4.93;4.20;;;;;;;7.34;53.89;96597.19;5062253;28;20186;-71
2023/11/27 08:02:14;;;;;;;6.77;4.87;;;;;;;7.45;53.94;96599.59;5065571;28;20193;-72
2023/11/27 08:04:40;;;;;;;5.30;4.60;;;;;;;7.37;54.11;96602.13;5066685;28;20561;-71
2023/11/27 08:07:06;;;;;;;7.03;4.40;;;;;;;7.33;54.00;96590.34;5062699;28;20461;-71
2023/11/27 08:09:33;;;;;;;5.93;4.70;;;;;;;7.40;53.63;96590.56;5065928;28;20704;-71
2023/11/27 08:11:59;;;;;;;8.13;3.93;;;;;;;7.25;53.91;96596.28;5062380;28;20432;-71
2023/11/27 08:14:24;;;;;;;6.07;4.20;;;;;;;7.29;54.34;96599.44;5059998;28;20424;-70
2023/11/27 08:16:50;;;;;;;5.57;4.10;;;;;;;7.35;53.87;96591.00;5049109;28;20213;-72
2023/11/27 08:19:16;;;;;;;4.87;3.97;;;;;;;7.33;54.22;96583.34;5060916;28;20210;-73
2023/11/27 08:21:45;;;;;;;6.33;4.70;;;;;;;7.29;53.98;96586.41;5064316;28;20464;-71
2023/11/27 08:24:13;;;;;;;8.07;5.47;;;;;;;7.16;54.18;96584.13;5063962;28;20946;-72
2023/11/27 08:26:39;;;;;;;8.97;5.43;;;;;;;7.26;53.93;96586.69;5061018;28;20456;-71
2023/11/27 08:29:07;;;;;;;7.10;6.20;;;;;;;7.28;54.54;96584.75;5057673;28;20467;-71
2023/11/27 08:31:32;;;;;;;7.40;6.03;;;;;;;7.23;54.04;96582.59;5066102;28;20437;-72
2023/11/27 08:33:57;;;;;;;10.40;5.30;;;;;;;7.32;53.88;96573.06;5065163;28;20432;-71
2023/11/27 08:36:26;;;;;;;7.10;5.10;;;;;;;7.21;54.43;96572.31;5066428;28;20249;-71
2023/11/27 08:38:52;;;;;;;5.70;4.40;;;;;;;7.29;53.88;96562.94;5062121;28;20182;-70
2023/11/27 08:41:18;;;;;;;7.23;5.00;;;;;;;7.29;54.45;96562.94;5068513;28;20420;-71
2023/11/27 08:43:43;;;;;;;6.60;5.10;;;;;;;7.36;54.14;96558.78;5064253;28;20273;-71
2023/11/27 08:46:09;;;;;;;6.90;5.10;;;;;;;7.48;53.71;96556.78;5066365;28;20466;-69
2023/11/27 08:48:34;;;;;;;6.77;4.00;;;;;;;7.52;54.17;96547.66;5051506;28;20266;-71
2023/11/27 08:51:00;;;;;;;9.47;4.63;;;;;;;7.49;53.81;96540.97;5062036;28;20669;-71
2023/11/27 08:53:27;;;;;;;6.73;4.90;;;;;;;7.52;53.47;96532.84;5068101;28;20197;-71
2023/11/27 08:55:55;;;;;;;7.70;4.73;;;;;;;7.43;53.13;96533.75;5069962;28;20946;-73
2023/11/27 08:58:20;;;;;;;6.33;4.10;;;;;;;7.54;53.49;96532.69;5069190;28;20433;-73
2023/11/27 09:00:46;;;;;;;10.47;4.27;;;;;;;7.61;52.78;96527.69;5066724;28;20439;-71
2023/11/27 09:03:11;;;;;;;9.10;4.90;;;;;;;7.65;53.01;96536.88;5052034;28;20635;-74
2023/11/27 09:05:41;;;;;;;6.70;3.97;;;;;;;7.73;52.75;96523.91;5062666;28;20205;-72
2023/11/27 09:08:07;;;;;;;6.70;4.17;;;;;;;7.76;52.49;96526.22;5062670;28;20194;-72
2023/11/27 09:10:33;;;;;;;5.50;4.37;;;;;;;7.73;52.33;96523.91;5060413;28;20457;-72
2023/11/27 09:12:58;;;;;;;5.07;3.93;;;;;;;7.79;52.16;96525.91;5065315;28;20444;-72
2023/11/27 09:15:24;;;;;;;5.67;3.80;;;;;;;7.70;51.65;96518.97;5065964;28;20277;-73
2023/11/27 09:17:49;;;;;;;7.90;3.80;;;;;;;7.82;51.51;96516.97;5062097;28;20278;-72
2023/11/27 09:20:15;;;;;;;6.07;3.93;;;;;;;7.84;51.30;96507.19;5061310;28;20194;-72
2023/11/27 09:22:41;;;;;;;7.73;3.80;;;;;;;7.94;51.15;96507.09;5065758;28;20187;-72
2023/11/27 09:25:09;;;;;;;4.83;3.60;;;;;;;8.00;51.45;96501.25;5066647;28;20718;-72
2023/11/27 09:27:40;;;;;;;5.83;4.07;;;;;;;7.98;50.82;96487.53;5059730;28;20263;-72
2023/11/27 09:30:09;;;;;;;6.50;3.50;;;;;;;8.02;50.72;96488.88;5058069;28;20464;-72
2023/11/27 09:32:38;;;;;;;11.30;4.10;;;;;;;7.96;50.67;96476.44;5062277;28;20424;-72
2023/11/27 09:35:05;;;;;;;4.00;3.60;;;;;;;7.93;49.63;96476.75;5063086;28;20428;-72
2023/11/27 09:37:32;;;;;;;5.90;4.20;;;;;;;8.04;50.33;96478.28;5064699;28;20493;-71
2023/11/27 09:39:59;;;;;;;6.23;4.10;;;;;;;8.15;50.23;96475.41;5064217;28;20452;-72
2023/11/27 09:42:26;;;;;;;4.53;3.53;;;;;;;8.17;49.63;96472.66;5067359;28;20429;-72
2023/11/27 09:44:54;;;;;;;6.80;3.57;;;;;;;8.23;49.22;96482.47;5045357;28;20446;-71
2023/11/27 09:47:20;;;;;;;5.60;4.07;;;;;;;8.11;49.91;96474.09;5068424;28;20472;-73
2023/11/27 09:49:49;;;;;;;5.00;3.80;;;;;;;8.17;49.46;96462.22;5069244;28;20375;-71
2023/11/27 09:52:15;;;;;;;6.53;3.80;;;;;;;8.23;49.96;96451.13;5049305;28;20657;-71
2023/11/27 09:54:44;;;;;;;4.10;3.67;;;;;;;8.29;49.37;96447.91;5048844;28;20463;-71
2023/11/27 09:57:11;;;;;;;5.87;3.90;;;;;;;8.32;49.41;96441.56;5044119;28;20465;-71
2023/11/27 09:59:40;;;;;;;5.63;3.13;;;;;;;8.26;48.77;96435.97;5066464;28;20424;-72
2023/11/27 10:02:09;;;;;;;7.37;4.00;;;;;;;8.31;48.68;96422.47;5045310;28;20434;-71
2023/11/27 10:04:35;;;;;;;5.10;3.70;;;;;;;8.31;49.04;96417.25;5067255;28;20437;-72
2023/11/27 10:07:00;;;;;;;3.90;3.50;;;;;;;8.36;48.99;96409.75;5068726;28;20894;-71
2023/11/27 10:09:26;;;;;;;7.03;3.50;;;;;;;8.40;48.72;96398.03;5065482;28;20817;-70
2023/11/27 10:11:58;;;;;;;6.17;3.47;;;;;;;8.42;48.08;96401.31;5066465;28;20211;-71
2023/11/27 10:14:24;;;;;;;4.17;3.30;;;;;;;8.33;48.26;96385.75;5065223;28;20281;-71
2023/11/27 10:16:50;;;;;;;3.90;3.13;;;;;;;8.36;48.34;96383.66;5065653;28;20449;-69
2023/11/27 10:19:19;;;;;;;3.03;2.63;;;;;;;8.27;48.50;96385.41;5067149;28;20435;-73
2023/11/27 10:21:45;;;;;;;4.13;2.80;;;;;;;8.10;47.60;96378.50;5067567;28;20194;-71
2023/11/27 10:24:11;;;;;;;3.77;2.80;;;;;;;8.27;48.35;96369.75;5068236;28;20938;-72
2023/11/27 10:26:38;;;;;;;5.87;3.40;;;;;;;8.29;47.71;96362.56;5067365;28;20484;-71
2023/11/27 10:29:03;;;;;;;4.10;3.40;;;;;;;8.37;47.57;96361.78;5068364;28;20214;-73
2023/11/27 10:31:30;;;;;;;8.73;2.90;;;;;;;8.26;47.55;96351.63;5066359;28;20428;-72
2023/11/27 10:33:56;;;;;;;5.10;3.30;;;;;;;8.26;47.55;96346.41;5068432;28;20198;-71
2023/11/27 10:36:24;;;;;;;4.87;3.10;;;;;;;8.14;47.83;96338.88;5065653;28;20480;-73
2023/11/27 10:39:08;;;;;;;3.10;2.80;;;;;;;8.23;48.58;96339.72;5062351;28;20187;-70
2023/11/27 10:41:34;;;;;;;4.00;3.00;;;;;;;8.30;47.94;96321.63;5034223;28;20440;-70
2023/11/27 10:44:02;;;;;;;4.80;4.13;;;;;;;8.31;48.41;96315.44;5067286;28;20570;-71
2023/11/27 10:46:31;;;;;;;5.43;3.50;;;;;;;8.30;47.35;96309.38;5057880;28;20457;-71
2023/11/27 10:48:59;;;;;;;4.30;3.40;;;;;;;8.37;47.78;96306.97;5060509;28;20553;-70
2023/11/27 10:51:25;;;;;;;6.20;4.27;;;;;;;8.35;47.71;96301.06;5054555;28;20437;-72
2023/11/27 10:53:51;;;;;;;6.20;3.63;;;;;;;8.32;47.92;96288.31;5050099;28;20428;-69
2023/11/27 10:56:19;;;;;;;4.63;3.97;;;;;;;8.45;47.92;96282.66;5045725;28;20509;-71
2023/11/27 10:58:45;;;;;;;5.83;4.10;;;;;;;8.48;47.47;96273.69;5045172;28;20438;-72
2023/11/27 11:01:12;;;;;;;5.60;4.17;;;;;;;8.55;46.99;96265.06;5048081;28;20446;-71
2023/11/27 11:03:39;;;;;;;5.37;3.33;;;;;;;8.47;47.55;96265.03;5063860;28;20436;-71
2023/11/27 11:06:06;;;;;;;4.97;3.57;;;;;;;8.54;46.94;96250.38;5050071;28;20448;-71
2023/11/27 11:08:32;;;;;;;6.90;3.50;;;;;;;8.68;47.10;96256.75;5067031;28;20497;-71
2023/11/27 11:11:00;;;;;;;5.33;3.40;;;;;;;8.81;46.71;96250.22;5064054;28;20476;-72
2023/11/27 11:13:26;;;;;;;5.93;3.47;;;;;;;8.90;46.52;96246.59;5065299;28;20281;-70
2023/11/27 11:16:13;;;;;;;5.53;3.50;;;;;;;8.94;45.98;96228.78;5068067;28;20453;-71
2023/11/27 11:18:57;;;;;;;6.13;3.47;;;;;;;8.99;46.32;96216.06;5062332;28;20435;-71
2023/11/27 11:21:39;;;;;;;3.63;2.73;;;;;;;8.89;45.64;96209.19;5049553;28;20433;-72
2023/11/27 11:24:08;;;;;;;3.37;3.00;;;;;;;8.93;45.96;96211.50;5049872;28;20436;-72
2023/11/27 11:26:53;;;;;;;3.97;3.20;;;;;;;8.81;45.64;96203.19;5056444;28;20970;-75
2023/11/27 11:29:32;;;;;;;4.37;3.13;;;;;;;8.93;45.59;96196.63;5048822;28;20811;-72
2023/11/27 11:32:01;;;;;;;4.03;3.13;;;;;;;8.96;45.79;96190.25;5068035;28;20469;-71
2023/11/27 11:34:30;;;;;;;4.60;3.17;;;;;;;8.93;45.91;96178.34;5063244;28;20424;-73
2023/11/27 11:36:59;;;;;;;5.40;3.33;;;;;;;8.89;45.51;96175.22;5067766;28;20463;-70